sensor_id;sensor_type;location;lat;lon;timestamp;P1;durP1;ratioP1;P2;durP2;ratioP2
2868;SDS011;1442;47.448;8.582;2023-04-06T00:00:32;7.88;;;4.70;;
2868;SDS011;1442;47.448;8.582;2023-04-06T00:02:59;9.30;;;5.32;;
2868;SDS011;1442;47.448;8.582;2023-04-06T00:05:26;9.63;;;5.70;;
2868;SDS011;1442;47.448;8.582;2023-04-06T00:07:55;9.02;;;5.55;;
2868;SDS011;1442;47.448;8.582;2023-04-06T00:10:22;10.27;;;6.25;;
2868;SDS011;1442;47.448;8.582;2023-04-06T00:12:49;9.75;;;6.07;;
2868;SDS011;1442;47.448;8.582;2023-04-06T00:15:17;9.07;;;5.88;;
2868;SDS011;1442;47.448;8.582;2023-04-06T00:17:45;8.82;;;5.25;;
2868;SDS011;1442;47.448;8.582;2023-04-06T00:20:12;8.93;;;5.15;;
2868;SDS011;1442;47.448;8.582;2023-04-06T00:22:39;10.82;;;6.22;;
2868;SDS011;1442;47.448;8.582;2023-04-06T00:25:06;12.60;;;6.05;;
2868;SDS011;1442;47.448;8.582;2023-04-06T00:27:35;10.82;;;5.30;;
2868;SDS011;1442;47.448;8.582;2023-04-06T00:30:02;16.40;;;5.60;;
2868;SDS011;1442;47.448;8.582;2023-04-06T00:32:29;8.55;;;6.10;;
2868;SDS011;1442;47.448;8.582;2023-04-06T00:34:58;8.73;;;6.32;;
2868;SDS011;1442;47.448;8.582;2023-04-06T00:37:25;11.13;;;5.38;;
2868;SDS011;1442;47.448;8.582;2023-04-06T00:39:52;8.05;;;5.70;;
2868;SDS011;1442;47.448;8.582;2023-04-06T00:42:19;9.57;;;5.43;;
2868;SDS011;1442;47.448;8.582;2023-04-06T00:44:50;10.40;;;5.75;;
2868;SDS011;1442;47.448;8.582;2023-04-06T00:47:17;8.30;;;5.97;;
2868;SDS011;1442;47.448;8.582;2023-04-06T00:49:45;7.65;;;5.18;;
2868;SDS011;1442;47.448;8.582;2023-04-06T00:52:13;16.15;;;5.18;;
2868;SDS011;1442;47.448;8.582;2023-04-06T00:54:40;9.05;;;6.00;;
2868;SDS011;1442;47.448;8.582;2023-04-06T00:57:08;9.70;;;5.88;;
2868;SDS011;1442;47.448;8.582;2023-04-06T00:59:35;10.55;;;6.07;;
2868;SDS011;1442;47.448;8.582;2023-04-06T01:02:02;10.85;;;6.18;;
2868;SDS011;1442;47.448;8.582;2023-04-06T01:04:29;12.10;;;6.07;;
2868;SDS011;1442;47.448;8.582;2023-04-06T01:06:56;10.07;;;5.90;;
2868;SDS011;1442;47.448;8.582;2023-04-06T01:09:25;10.88;;;6.80;;
2868;SDS011;1442;47.448;8.582;2023-04-06T01:11:54;12.57;;;6.18;;
2868;SDS011;1442;47.448;8.582;2023-04-06T01:14:21;9.50;;;6.03;;
2868;SDS011;1442;47.448;8.582;2023-04-06T01:16:49;9.50;;;6.65;;
2868;SDS011;1442;47.448;8.582;2023-04-06T01:19:16;9.13;;;6.13;;
2868;SDS011;1442;47.448;8.582;2023-04-06T01:21:43;10.98;;;6.25;;
2868;SDS011;1442;47.448;8.582;2023-04-06T01:24:12;9.73;;;6.07;;
2868;SDS011;1442;47.448;8.582;2023-04-06T01:26:39;10.85;;;5.53;;
2868;SDS011;1442;47.448;8.582;2023-04-06T01:29:07;11.25;;;6.30;;
2868;SDS011;1442;47.448;8.582;2023-04-06T01:31:34;8.38;;;5.75;;
2868;SDS011;1442;47.448;8.582;2023-04-06T01:34:01;9.10;;;5.72;;
2868;SDS011;1442;47.448;8.582;2023-04-06T01:36:28;9.38;;;6.35;;
2868;SDS011;1442;47.448;8.582;2023-04-06T01:38:56;10.85;;;6.03;;
2868;SDS011;1442;47.448;8.582;2023-04-06T01:41:24;8.20;;;5.68;;
2868;SDS011;1442;47.448;8.582;2023-04-06T01:43:51;10.77;;;5.88;;
2868;SDS011;1442;47.448;8.582;2023-04-06T01:46:19;11.55;;;6.47;;
2868;SDS011;1442;47.448;8.582;2023-04-06T01:48:47;9.23;;;6.10;;
2868;SDS011;1442;47.448;8.582;2023-04-06T01:51:14;9.02;;;6.10;;
2868;SDS011;1442;47.448;8.582;2023-04-06T01:53:41;9.18;;;6.40;;
2868;SDS011;1442;47.448;8.582;2023-04-06T01:56:08;8.63;;;6.00;;
2868;SDS011;1442;47.448;8.582;2023-04-06T01:58:36;8.80;;;5.82;;
2868;SDS011;1442;47.448;8.582;2023-04-06T02:01:04;8.68;;;5.97;;
2868;SDS011;1442;47.448;8.582;2023-04-06T02:03:31;13.48;;;6.68;;
2868;SDS011;1442;47.448;8.582;2023-04-06T02:05:58;10.10;;;6.38;;
2868;SDS011;1442;47.448;8.582;2023-04-06T02:08:25;12.07;;;6.22;;
2868;SDS011;1442;47.448;8.582;2023-04-06T02:10:52;11.15;;;6.45;;
2868;SDS011;1442;47.448;8.582;2023-04-06T02:13:19;9.82;;;5.70;;
2868;SDS011;1442;47.448;8.582;2023-04-06T02:15:48;7.63;;;5.40;;
2868;SDS011;1442;47.448;8.582;2023-04-06T02:18:15;12.35;;;6.35;;
2868;SDS011;1442;47.448;8.582;2023-04-06T02:20:43;10.65;;;5.97;;
2868;SDS011;1442;47.448;8.582;2023-04-06T02:23:10;10.73;;;6.38;;
2868;SDS011;1442;47.448;8.582;2023-04-06T02:25:38;9.48;;;5.85;;
2868;SDS011;1442;47.448;8.582;2023-04-06T02:28:05;10.52;;;6.03;;
2868;SDS011;1442;47.448;8.582;2023-04-06T02:30:32;10.02;;;6.28;;
2868;SDS011;1442;47.448;8.582;2023-04-06T02:33:01;9.57;;;5.82;;
2868;SDS011;1442;47.448;8.582;2023-04-06T02:35:28;15.88;;;6.10;;
2868;SDS011;1442;47.448;8.582;2023-04-06T02:37:55;9.98;;;6.10;;
2868;SDS011;1442;47.448;8.582;2023-04-06T02:40:23;10.07;;;6.38;;
2868;SDS011;1442;47.448;8.582;2023-04-06T02:42:50;11.82;;;5.78;;
2868;SDS011;1442;47.448;8.582;2023-04-06T02:45:17;13.23;;;6.00;;
2868;SDS011;1442;47.448;8.582;2023-04-06T02:47:44;9.63;;;6.13;;
2868;SDS011;1442;47.448;8.582;2023-04-06T02:50:13;13.85;;;6.07;;
2868;SDS011;1442;47.448;8.582;2023-04-06T02:52:40;11.75;;;6.90;;
2868;SDS011;1442;47.448;8.582;2023-04-06T02:55:08;11.80;;;6.30;;
2868;SDS011;1442;47.448;8.582;2023-04-06T02:57:35;12.55;;;6.70;;
2868;SDS011;1442;47.448;8.582;2023-04-06T03:00:03;8.93;;;6.30;;
2868;SDS011;1442;47.448;8.582;2023-04-06T03:02:30;9.73;;;6.13;;
2868;SDS011;1442;47.448;8.582;2023-04-06T03:04:57;9.30;;;5.97;;
2868;SDS011;1442;47.448;8.582;2023-04-06T03:07:26;9.77;;;6.43;;
2868;SDS011;1442;47.448;8.582;2023-04-06T03:09:53;10.88;;;6.63;;
2868;SDS011;1442;47.448;8.582;2023-04-06T03:12:20;10.65;;;6.80;;
2868;SDS011;1442;47.448;8.582;2023-04-06T03:14:47;12.20;;;6.43;;
2868;SDS011;1442;47.448;8.582;2023-04-06T03:17:14;10.02;;;6.20;;
2868;SDS011;1442;47.448;8.582;2023-04-06T03:19:41;9.82;;;6.63;;
2868;SDS011;1442;47.448;8.582;2023-04-06T03:22:09;10.32;;;6.22;;
2868;SDS011;1442;47.448;8.582;2023-04-06T03:24:37;10.38;;;6.35;;
2868;SDS011;1442;47.448;8.582;2023-04-06T03:27:04;10.82;;;6.10;;
2868;SDS011;1442;47.448;8.582;2023-04-06T03:29:32;13.15;;;6.13;;
2868;SDS011;1442;47.448;8.582;2023-04-06T03:31:59;10.85;;;6.03;;
2868;SDS011;1442;47.448;8.582;2023-04-06T03:34:26;10.63;;;6.30;;
2868;SDS011;1442;47.448;8.582;2023-04-06T03:36:53;10.38;;;6.63;;
2868;SDS011;1442;47.448;8.582;2023-04-06T03:39:20;8.50;;;5.80;;
2868;SDS011;1442;47.448;8.582;2023-04-06T03:41:49;10.35;;;6.72;;
2868;SDS011;1442;47.448;8.582;2023-04-06T03:44:16;9.77;;;5.90;;
2868;SDS011;1442;47.448;8.582;2023-04-06T03:46:43;10.40;;;6.28;;
2868;SDS011;1442;47.448;8.582;2023-04-06T03:49:10;11.57;;;5.85;;
2868;SDS011;1442;47.448;8.582;2023-04-06T03:51:37;14.20;;;7.03;;
2868;SDS011;1442;47.448;8.582;2023-04-06T03:54:04;10.23;;;6.35;;
2868;SDS011;1442;47.448;8.582;2023-04-06T03:56:32;16.05;;;6.13;;
2868;SDS011;1442;47.448;8.582;2023-04-06T03:59:00;13.73;;;6.53;;
2868;SDS011;1442;47.448;8.582;2023-04-06T04:01:27;13.35;;;6.75;;
2868;SDS011;1442;47.448;8.582;2023-04-06T04:03:55;10.90;;;6.72;;
2868;SDS011;1442;47.448;8.582;2023-04-06T04:06:22;13.00;;;6.68;;
2868;SDS011;1442;47.448;8.582;2023-04-06T04:08:50;9.93;;;6.80;;
2868;SDS011;1442;47.448;8.582;2023-04-06T04:11:17;11.80;;;6.75;;
2868;SDS011;1442;47.448;8.582;2023-04-06T04:13:45;12.18;;;6.65;;
2868;SDS011;1442;47.448;8.582;2023-04-06T04:16:13;9.38;;;5.97;;
2868;SDS011;1442;47.448;8.582;2023-04-06T04:18:40;13.15;;;6.63;;
2868;SDS011;1442;47.448;8.582;2023-04-06T04:21:08;11.38;;;6.35;;
2868;SDS011;1442;47.448;8.582;2023-04-06T04:23:35;14.98;;;6.43;;
2868;SDS011;1442;47.448;8.582;2023-04-06T04:26:03;12.18;;;6.53;;
2868;SDS011;1442;47.448;8.582;2023-04-06T04:28:30;10.38;;;6.18;;
2868;SDS011;1442;47.448;8.582;2023-04-06T04:30:57;12.07;;;6.97;;
2868;SDS011;1442;47.448;8.582;2023-04-06T04:33:26;9.15;;;6.20;;
2868;SDS011;1442;47.448;8.582;2023-04-06T04:35:53;15.18;;;6.85;;
2868;SDS011;1442;47.448;8.582;2023-04-06T04:38:20;10.95;;;6.63;;
2868;SDS011;1442;47.448;8.582;2023-04-06T04:40:47;15.27;;;7.10;;
2868;SDS011;1442;47.448;8.582;2023-04-06T04:43:14;10.95;;;6.22;;
2868;SDS011;1442;47.448;8.582;2023-04-06T04:45:41;9.73;;;6.10;;
2868;SDS011;1442;47.448;8.582;2023-04-06T04:48:09;10.98;;;5.97;;
2868;SDS011;1442;47.448;8.582;2023-04-06T04:50:37;10.75;;;6.25;;
2868;SDS011;1442;47.448;8.582;2023-04-06T04:53:04;11.10;;;6.63;;
2868;SDS011;1442;47.448;8.582;2023-04-06T04:55:31;8.88;;;6.45;;
2868;SDS011;1442;47.448;8.582;2023-04-06T04:57:59;12.45;;;6.30;;
2868;SDS011;1442;47.448;8.582;2023-04-06T05:00:27;11.05;;;6.45;;
2868;SDS011;1442;47.448;8.582;2023-04-06T05:02:54;12.57;;;5.78;;
2868;SDS011;1442;47.448;8.582;2023-04-06T05:05:21;13.95;;;6.63;;
2868;SDS011;1442;47.448;8.582;2023-04-06T05:07:50;11.73;;;6.88;;
2868;SDS011;1442;47.448;8.582;2023-04-06T05:10:17;11.00;;;6.43;;
2868;SDS011;1442;47.448;8.582;2023-04-06T05:12:44;10.48;;;6.50;;
2868;SDS011;1442;47.448;8.582;2023-04-06T05:15:11;10.07;;;6.15;;
2868;SDS011;1442;47.448;8.582;2023-04-06T05:17:38;8.23;;;5.85;;
2868;SDS011;1442;47.448;8.582;2023-04-06T05:20:06;10.75;;;6.13;;
2868;SDS011;1442;47.448;8.582;2023-04-06T05:22:33;11.57;;;6.55;;
2868;SDS011;1442;47.448;8.582;2023-04-06T05:25:02;15.65;;;6.88;;
2868;SDS011;1442;47.448;8.582;2023-04-06T05:27:29;17.08;;;7.20;;
2868;SDS011;1442;47.448;8.582;2023-04-06T05:29:56;11.45;;;6.55;;
2868;SDS011;1442;47.448;8.582;2023-04-06T05:32:24;14.88;;;7.25;;
2868;SDS011;1442;47.448;8.582;2023-04-06T05:34:51;13.60;;;6.95;;
2868;SDS011;1442;47.448;8.582;2023-04-06T05:37:18;15.63;;;7.72;;
2868;SDS011;1442;47.448;8.582;2023-04-06T05:39:45;12.10;;;7.18;;
2868;SDS011;1442;47.448;8.582;2023-04-06T05:42:13;16.05;;;7.95;;
2868;SDS011;1442;47.448;8.582;2023-04-06T05:44:41;23.30;;;7.72;;
2868;SDS011;1442;47.448;8.582;2023-04-06T05:47:08;16.83;;;7.10;;
2868;SDS011;1442;47.448;8.582;2023-04-06T05:49:36;15.05;;;8.25;;
2868;SDS011;1442;47.448;8.582;2023-04-06T05:52:03;16.25;;;8.27;;
2868;SDS011;1442;47.448;8.582;2023-04-06T05:54:30;15.10;;;7.43;;
2868;SDS011;1442;47.448;8.582;2023-04-06T05:56:57;21.52;;;7.93;;
2868;SDS011;1442;47.448;8.582;2023-04-06T05:59:25;14.30;;;8.05;;
2868;SDS011;1442;47.448;8.582;2023-04-06T06:01:53;18.75;;;8.32;;
2868;SDS011;1442;47.448;8.582;2023-04-06T06:04:20;13.55;;;7.53;;
2868;SDS011;1442;47.448;8.582;2023-04-06T06:06:47;12.60;;;7.43;;
2868;SDS011;1442;47.448;8.582;2023-04-06T06:09:14;13.32;;;7.95;;
2868;SDS011;1442;47.448;8.582;2023-04-06T06:11:41;12.25;;;7.60;;
2868;SDS011;1442;47.448;8.582;2023-04-06T06:14:08;15.10;;;8.35;;
2868;SDS011;1442;47.448;8.582;2023-04-06T06:16:37;14.45;;;7.75;;
2868;SDS011;1442;47.448;8.582;2023-04-06T06:19:04;13.77;;;8.00;;
2868;SDS011;1442;47.448;8.582;2023-04-06T06:21:31;15.02;;;7.80;;
2868;SDS011;1442;47.448;8.582;2023-04-06T06:23:58;12.88;;;8.27;;
2868;SDS011;1442;47.448;8.582;2023-04-06T06:26:25;15.25;;;8.27;;
2868;SDS011;1442;47.448;8.582;2023-04-06T06:28:52;18.75;;;8.45;;
2868;SDS011;1442;47.448;8.582;2023-04-06T06:31:20;19.05;;;9.23;;
2868;SDS011;1442;47.448;8.582;2023-04-06T06:33:49;13.18;;;8.15;;
2868;SDS011;1442;47.448;8.582;2023-04-06T06:36:16;20.60;;;8.75;;
2868;SDS011;1442;47.448;8.582;2023-04-06T06:38:43;11.95;;;8.68;;
2868;SDS011;1442;47.448;8.582;2023-04-06T06:41:11;15.93;;;9.18;;
2868;SDS011;1442;47.448;8.582;2023-04-06T06:43:38;16.90;;;8.07;;
2868;SDS011;1442;47.448;8.582;2023-04-06T06:46:05;15.00;;;9.27;;
2868;SDS011;1442;47.448;8.582;2023-04-06T06:48:32;16.48;;;8.63;;
2868;SDS011;1442;47.448;8.582;2023-04-06T06:51:01;14.80;;;8.93;;
2868;SDS011;1442;47.448;8.582;2023-04-06T06:53:28;19.27;;;9.18;;
2868;SDS011;1442;47.448;8.582;2023-04-06T06:55:55;15.15;;;9.52;;
2868;SDS011;1442;47.448;8.582;2023-04-06T06:58:22;14.88;;;8.40;;
2868;SDS011;1442;47.448;8.582;2023-04-06T07:00:49;25.92;;;10.30;;
2868;SDS011;1442;47.448;8.582;2023-04-06T07:03:16;16.75;;;9.25;;
2868;SDS011;1442;47.448;8.582;2023-04-06T07:05:48;17.48;;;8.98;;
2868;SDS011;1442;47.448;8.582;2023-04-06T07:08:19;20.10;;;9.25;;
2868;SDS011;1442;47.448;8.582;2023-04-06T07:10:46;20.35;;;9.98;;
2868;SDS011;1442;47.448;8.582;2023-04-06T07:13:13;16.70;;;9.90;;
2868;SDS011;1442;47.448;8.582;2023-04-06T07:15:45;17.33;;;9.30;;
2868;SDS011;1442;47.448;8.582;2023-04-06T07:18:12;16.27;;;9.55;;
2868;SDS011;1442;47.448;8.582;2023-04-06T07:20:39;15.13;;;10.02;;
2868;SDS011;1442;47.448;8.582;2023-04-06T07:23:07;16.23;;;10.02;;
2868;SDS011;1442;47.448;8.582;2023-04-06T07:25:35;16.00;;;9.35;;
2868;SDS011;1442;47.448;8.582;2023-04-06T07:28:02;17.02;;;9.75;;
2868;SDS011;1442;47.448;8.582;2023-04-06T07:30:30;16.02;;;9.65;;
2868;SDS011;1442;47.448;8.582;2023-04-06T07:32:57;18.25;;;9.57;;
2868;SDS011;1442;47.448;8.582;2023-04-06T07:35:25;17.50;;;9.68;;
2868;SDS011;1442;47.448;8.582;2023-04-06T07:37:53;13.85;;;9.55;;
2868;SDS011;1442;47.448;8.582;2023-04-06T07:40:20;18.42;;;9.70;;
2868;SDS011;1442;47.448;8.582;2023-04-06T07:42:49;18.30;;;9.32;;
2868;SDS011;1442;47.448;8.582;2023-04-06T07:45:16;15.05;;;9.10;;
2868;SDS011;1442;47.448;8.582;2023-04-06T07:47:43;17.33;;;10.10;;
2868;SDS011;1442;47.448;8.582;2023-04-06T07:50:10;14.68;;;9.25;;
2868;SDS011;1442;47.448;8.582;2023-04-06T07:52:37;16.67;;;10.40;;
2868;SDS011;1442;47.448;8.582;2023-04-06T07:55:05;21.08;;;9.88;;
2868;SDS011;1442;47.448;8.582;2023-04-06T07:57:32;15.20;;;9.10;;
2868;SDS011;1442;47.448;8.582;2023-04-06T08:00:00;14.63;;;9.05;;
2868;SDS011;1442;47.448;8.582;2023-04-06T08:02:28;14.65;;;8.65;;
2868;SDS011;1442;47.448;8.582;2023-04-06T08:04:55;16.50;;;9.18;;
2868;SDS011;1442;47.448;8.582;2023-04-06T08:07:23;20.48;;;9.05;;
2868;SDS011;1442;47.448;8.582;2023-04-06T08:09:50;21.52;;;9.45;;
2868;SDS011;1442;47.448;8.582;2023-04-06T08:12:17;15.65;;;8.70;;
2868;SDS011;1442;47.448;8.582;2023-04-06T08:14:44;13.15;;;8.65;;
2868;SDS011;1442;47.448;8.582;2023-04-06T08:17:12;17.60;;;7.60;;
2868;SDS011;1442;47.448;8.582;2023-04-06T08:19:42;11.27;;;7.38;;
2868;SDS011;1442;47.448;8.582;2023-04-06T08:22:09;14.10;;;7.13;;
2868;SDS011;1442;47.448;8.582;2023-04-06T08:24:36;12.38;;;7.13;;
2868;SDS011;1442;47.448;8.582;2023-04-06T08:27:03;12.35;;;7.65;;
2868;SDS011;1442;47.448;8.582;2023-04-06T08:29:30;12.05;;;7.57;;
2868;SDS011;1442;47.448;8.582;2023-04-06T08:31:58;16.35;;;7.85;;
2868;SDS011;1442;47.448;8.582;2023-04-06T08:34:26;13.48;;;7.45;;
2868;SDS011;1442;47.448;8.582;2023-04-06T08:36:54;13.73;;;7.35;;
2868;SDS011;1442;47.448;8.582;2023-04-06T08:39:21;11.10;;;7.68;;
2868;SDS011;1442;47.448;8.582;2023-04-06T08:41:50;12.68;;;7.65;;
2868;SDS011;1442;47.448;8.582;2023-04-06T08:44:21;12.80;;;7.63;;
2868;SDS011;1442;47.448;8.582;2023-04-06T08:46:49;19.70;;;8.95;;
2868;SDS011;1442;47.448;8.582;2023-04-06T08:49:17;16.02;;;8.07;;
2868;SDS011;1442;47.448;8.582;2023-04-06T08:51:46;12.75;;;7.45;;
2868;SDS011;1442;47.448;8.582;2023-04-06T08:54:14;11.77;;;7.55;;
2868;SDS011;1442;47.448;8.582;2023-04-06T08:56:41;12.60;;;7.50;;
2868;SDS011;1442;47.448;8.582;2023-04-06T08:59:08;11.35;;;7.25;;
2868;SDS011;1442;47.448;8.582;2023-04-06T09:01:37;15.65;;;7.47;;
2868;SDS011;1442;47.448;8.582;2023-04-06T09:04:06;12.70;;;7.05;;
2868;SDS011;1442;47.448;8.582;2023-04-06T09:06:35;15.95;;;7.63;;
2868;SDS011;1442;47.448;8.582;2023-04-06T09:09:04;14.93;;;7.47;;
2868;SDS011;1442;47.448;8.582;2023-04-06T09:11:41;11.05;;;7.57;;
2868;SDS011;1442;47.448;8.582;2023-04-06T09:14:08;16.48;;;8.55;;
2868;SDS011;1442;47.448;8.582;2023-04-06T09:16:38;12.10;;;7.10;;
2868;SDS011;1442;47.448;8.582;2023-04-06T09:19:05;11.55;;;7.18;;
2868;SDS011;1442;47.448;8.582;2023-04-06T09:21:33;12.52;;;7.35;;
2868;SDS011;1442;47.448;8.582;2023-04-06T09:24:01;10.93;;;7.15;;
2868;SDS011;1442;47.448;8.582;2023-04-06T09:26:29;12.43;;;7.18;;
2868;SDS011;1442;47.448;8.582;2023-04-06T09:28:59;11.38;;;6.05;;
2868;SDS011;1442;47.448;8.582;2023-04-06T09:31:28;10.23;;;5.30;;
2868;SDS011;1442;47.448;8.582;2023-04-06T09:33:57;7.97;;;5.05;;
2868;SDS011;1442;47.448;8.582;2023-04-06T09:36:34;10.77;;;5.30;;
2868;SDS011;1442;47.448;8.582;2023-04-06T09:39:03;10.90;;;6.15;;
2868;SDS011;1442;47.448;8.582;2023-04-06T09:41:32;11.73;;;5.30;;
2868;SDS011;1442;47.448;8.582;2023-04-06T09:44:03;9.82;;;5.35;;
2868;SDS011;1442;47.448;8.582;2023-04-06T09:46:31;11.40;;;5.57;;
2868;SDS011;1442;47.448;8.582;2023-04-06T09:48:59;8.77;;;5.10;;
2868;SDS011;1442;47.448;8.582;2023-04-06T09:51:27;10.63;;;5.32;;
2868;SDS011;1442;47.448;8.582;2023-04-06T09:53:56;9.95;;;5.35;;
2868;SDS011;1442;47.448;8.582;2023-04-06T09:56:27;10.43;;;5.70;;
2868;SDS011;1442;47.448;8.582;2023-04-06T09:59:00;9.95;;;5.30;;
2868;SDS011;1442;47.448;8.582;2023-04-06T10:01:29;8.50;;;4.80;;
2868;SDS011;1442;47.448;8.582;2023-04-06T10:04:00;8.82;;;4.90;;
2868;SDS011;1442;47.448;8.582;2023-04-06T10:06:32;8.07;;;4.63;;
2868;SDS011;1442;47.448;8.582;2023-04-06T10:09:00;8.68;;;5.00;;
2868;SDS011;1442;47.448;8.582;2023-04-06T10:11:28;9.65;;;5.13;;
2868;SDS011;1442;47.448;8.582;2023-04-06T10:13:57;6.85;;;4.68;;
2868;SDS011;1442;47.448;8.582;2023-04-06T10:16:24;10.30;;;5.22;;
2868;SDS011;1442;47.448;8.582;2023-04-06T10:18:54;8.02;;;4.75;;
2868;SDS011;1442;47.448;8.582;2023-04-06T10:21:23;9.18;;;4.75;;
2868;SDS011;1442;47.448;8.582;2023-04-06T10:23:52;6.32;;;4.32;;
2868;SDS011;1442;47.448;8.582;2023-04-06T10:26:21;9.25;;;5.03;;
2868;SDS011;1442;47.448;8.582;2023-04-06T10:28:49;7.93;;;4.68;;
2868;SDS011;1442;47.448;8.582;2023-04-06T10:31:25;7.22;;;4.25;;
2868;SDS011;1442;47.448;8.582;2023-04-06T10:33:56;10.70;;;5.18;;
2868;SDS011;1442;47.448;8.582;2023-04-06T10:36:24;8.18;;;4.55;;
2868;SDS011;1442;47.448;8.582;2023-04-06T10:38:55;8.52;;;4.93;;
2868;SDS011;1442;47.448;8.582;2023-04-06T10:41:23;7.93;;;4.50;;
2868;SDS011;1442;47.448;8.582;2023-04-06T10:43:54;7.90;;;4.38;;
2868;SDS011;1442;47.448;8.582;2023-04-06T10:46:26;8.80;;;4.80;;
2868;SDS011;1442;47.448;8.582;2023-04-06T10:48:53;9.23;;;4.40;;
2868;SDS011;1442;47.448;8.582;2023-04-06T10:51:23;8.02;;;4.65;;
2868;SDS011;1442;47.448;8.582;2023-04-06T10:53:52;6.33;;;4.33;;
2868;SDS011;1442;47.448;8.582;2023-04-06T10:56:21;9.88;;;4.72;;
2868;SDS011;1442;47.448;8.582;2023-04-06T10:58:49;9.50;;;4.72;;
2868;SDS011;1442;47.448;8.582;2023-04-06T11:01:17;7.68;;;4.45;;
2868;SDS011;1442;47.448;8.582;2023-04-06T11:03:46;9.23;;;4.95;;
2868;SDS011;1442;47.448;8.582;2023-04-06T11:06:20;8.85;;;5.28;;
2868;SDS011;1442;47.448;8.582;2023-04-06T11:08:48;8.23;;;4.22;;
2868;SDS011;1442;47.448;8.582;2023-04-06T11:11:16;8.23;;;4.45;;
2868;SDS011;1442;47.448;8.582;2023-04-06T11:13:44;8.02;;;4.90;;
2868;SDS011;1442;47.448;8.582;2023-04-06T11:16:12;6.93;;;4.45;;
2868;SDS011;1442;47.448;8.582;2023-04-06T11:18:47;8.95;;;4.53;;
2868;SDS011;1442;47.448;8.582;2023-04-06T11:21:14;10.93;;;4.63;;
2868;SDS011;1442;47.448;8.582;2023-04-06T11:23:42;8.52;;;4.10;;
2868;SDS011;1442;47.448;8.582;2023-04-06T11:26:10;6.03;;;4.32;;
2868;SDS011;1442;47.448;8.582;2023-04-06T11:28:39;9.55;;;4.50;;
2868;SDS011;1442;47.448;8.582;2023-04-06T11:31:06;7.15;;;3.95;;
2868;SDS011;1442;47.448;8.582;2023-04-06T11:33:37;7.22;;;4.35;;
2868;SDS011;1442;47.448;8.582;2023-04-06T11:36:06;8.80;;;4.30;;
2868;SDS011;1442;47.448;8.582;2023-04-06T11:38:33;7.57;;;4.88;;
2868;SDS011;1442;47.448;8.582;2023-04-06T11:41:01;9.90;;;4.88;;
2868;SDS011;1442;47.448;8.582;2023-04-06T11:43:29;7.22;;;4.75;;
2868;SDS011;1442;47.448;8.582;2023-04-06T11:45:59;8.45;;;4.85;;
2868;SDS011;1442;47.448;8.582;2023-04-06T11:48:27;10.98;;;5.88;;
2868;SDS011;1442;47.448;8.582;2023-04-06T11:50:55;6.38;;;4.50;;
2868;SDS011;1442;47.448;8.582;2023-04-06T11:53:24;7.40;;;4.53;;
2868;SDS011;1442;47.448;8.582;2023-04-06T11:55:51;9.05;;;5.25;;
2868;SDS011;1442;47.448;8.582;2023-04-06T11:58:18;9.20;;;5.05;;
2868;SDS011;1442;47.448;8.582;2023-04-06T12:00:46;9.48;;;4.65;;
2868;SDS011;1442;47.448;8.582;2023-04-06T12:03:13;8.10;;;4.90;;
2868;SDS011;1442;47.448;8.582;2023-04-06T12:05:40;8.20;;;3.95;;
2868;SDS011;1442;47.448;8.582;2023-04-06T12:08:07;8.77;;;4.55;;
2868;SDS011;1442;47.448;8.582;2023-04-06T12:10:36;6.50;;;4.20;;
2868;SDS011;1442;47.448;8.582;2023-04-06T12:13:03;7.00;;;4.57;;
2868;SDS011;1442;47.448;8.582;2023-04-06T12:15:30;7.95;;;4.18;;
2868;SDS011;1442;47.448;8.582;2023-04-06T12:17:58;10.20;;;5.20;;
2868;SDS011;1442;47.448;8.582;2023-04-06T12:20:25;6.72;;;4.68;;
2868;SDS011;1442;47.448;8.582;2023-04-06T12:22:52;8.30;;;4.90;;
2868;SDS011;1442;47.448;8.582;2023-04-06T12:25:19;10.50;;;4.90;;
2868;SDS011;1442;47.448;8.582;2023-04-06T12:27:48;7.18;;;4.55;;
2868;SDS011;1442;47.448;8.582;2023-04-06T12:30:15;8.73;;;4.75;;
2868;SDS011;1442;47.448;8.582;2023-04-06T12:32:42;9.60;;;4.88;;
2868;SDS011;1442;47.448;8.582;2023-04-06T12:35:09;7.30;;;4.40;;
2868;SDS011;1442;47.448;8.582;2023-04-06T12:37:40;7.57;;;4.65;;
2868;SDS011;1442;47.448;8.582;2023-04-06T12:40:08;9.85;;;4.50;;
2868;SDS011;1442;47.448;8.582;2023-04-06T12:42:38;6.10;;;4.50;;
2868;SDS011;1442;47.448;8.582;2023-04-06T12:45:07;8.65;;;4.40;;
2868;SDS011;1442;47.448;8.582;2023-04-06T12:47:34;8.07;;;4.18;;
2868;SDS011;1442;47.448;8.582;2023-04-06T12:50:02;6.18;;;3.90;;
2868;SDS011;1442;47.448;8.582;2023-04-06T12:52:30;7.68;;;4.45;;
2868;SDS011;1442;47.448;8.582;2023-04-06T12:55:00;7.10;;;4.28;;
2868;SDS011;1442;47.448;8.582;2023-04-06T12:57:27;8.20;;;4.35;;
2868;SDS011;1442;47.448;8.582;2023-04-06T12:59:54;5.57;;;4.20;;
2868;SDS011;1442;47.448;8.582;2023-04-06T13:02:23;8.30;;;4.60;;
2868;SDS011;1442;47.448;8.582;2023-04-06T13:04:51;6.93;;;4.53;;
2868;SDS011;1442;47.448;8.582;2023-04-06T13:07:18;6.32;;;4.05;;
2868;SDS011;1442;47.448;8.582;2023-04-06T13:09:45;7.10;;;4.50;;
2868;SDS011;1442;47.448;8.582;2023-04-06T13:12:14;7.35;;;4.47;;
2868;SDS011;1442;47.448;8.582;2023-04-06T13:14:41;6.72;;;4.50;;
2868;SDS011;1442;47.448;8.582;2023-04-06T13:17:08;5.93;;;4.05;;
2868;SDS011;1442;47.448;8.582;2023-04-06T13:19:37;6.03;;;4.35;;
2868;SDS011;1442;47.448;8.582;2023-04-06T13:22:04;5.57;;;3.88;;
2868;SDS011;1442;47.448;8.582;2023-04-06T13:24:31;5.07;;;3.60;;
2868;SDS011;1442;47.448;8.582;2023-04-06T13:26:59;6.28;;;4.10;;
2868;SDS011;1442;47.448;8.582;2023-04-06T13:29:27;8.57;;;4.75;;
2868;SDS011;1442;47.448;8.582;2023-04-06T13:31:54;8.10;;;4.22;;
2868;SDS011;1442;47.448;8.582;2023-04-06T13:34:21;10.57;;;3.88;;
2868;SDS011;1442;47.448;8.582;2023-04-06T13:36:50;7.72;;;3.78;;
2868;SDS011;1442;47.448;8.582;2023-04-06T13:39:17;5.43;;;4.07;;
2868;SDS011;1442;47.448;8.582;2023-04-06T13:41:44;5.65;;;3.72;;
2868;SDS011;1442;47.448;8.582;2023-04-06T13:44:11;7.45;;;3.85;;
2868;SDS011;1442;47.448;8.582;2023-04-06T13:46:38;6.18;;;3.92;;
2868;SDS011;1442;47.448;8.582;2023-04-06T13:49:06;5.57;;;3.85;;
2868;SDS011;1442;47.448;8.582;2023-04-06T13:51:34;6.95;;;3.58;;
2868;SDS011;1442;47.448;8.582;2023-04-06T13:54:02;5.93;;;4.22;;
2868;SDS011;1442;47.448;8.582;2023-04-06T13:56:30;8.98;;;4.30;;
2868;SDS011;1442;47.448;8.582;2023-04-06T13:58:57;6.15;;;4.50;;
2868;SDS011;1442;47.448;8.582;2023-04-06T14:01:24;6.40;;;4.25;;
2868;SDS011;1442;47.448;8.582;2023-04-06T14:03:51;7.43;;;4.50;;
2868;SDS011;1442;47.448;8.582;2023-04-06T14:06:18;10.18;;;3.72;;
2868;SDS011;1442;47.448;8.582;2023-04-06T14:08:45;7.72;;;3.83;;
2868;SDS011;1442;47.448;8.582;2023-04-06T14:11:14;7.68;;;4.10;;
2868;SDS011;1442;47.448;8.582;2023-04-06T14:13:41;4.57;;;3.20;;
2868;SDS011;1442;47.448;8.582;2023-04-06T14:16:08;9.88;;;4.40;;
2868;SDS011;1442;47.448;8.582;2023-04-06T14:18:36;5.00;;;3.15;;
2868;SDS011;1442;47.448;8.582;2023-04-06T14:21:03;9.18;;;3.35;;
2868;SDS011;1442;47.448;8.582;2023-04-06T14:23:30;5.35;;;3.78;;
2868;SDS011;1442;47.448;8.582;2023-04-06T14:26:01;7.20;;;3.85;;
2868;SDS011;1442;47.448;8.582;2023-04-06T14:28:30;6.35;;;3.55;;
2868;SDS011;1442;47.448;8.582;2023-04-06T14:30:58;5.55;;;3.40;;
2868;SDS011;1442;47.448;8.582;2023-04-06T14:33:25;7.47;;;4.18;;
2868;SDS011;1442;47.448;8.582;2023-04-06T14:35:53;7.28;;;4.72;;
2868;SDS011;1442;47.448;8.582;2023-04-06T14:38:20;8.40;;;3.92;;
2868;SDS011;1442;47.448;8.582;2023-04-06T14:40:47;6.07;;;4.03;;
2868;SDS011;1442;47.448;8.582;2023-04-06T14:43:15;8.32;;;3.65;;
2868;SDS011;1442;47.448;8.582;2023-04-06T14:45:43;6.72;;;3.78;;
2868;SDS011;1442;47.448;8.582;2023-04-06T14:48:11;6.40;;;4.00;;
2868;SDS011;1442;47.448;8.582;2023-04-06T14:50:38;5.07;;;3.55;;
2868;SDS011;1442;47.448;8.582;2023-04-06T14:53:05;7.78;;;3.95;;
2868;SDS011;1442;47.448;8.582;2023-04-06T14:55:32;5.72;;;3.53;;
2868;SDS011;1442;47.448;8.582;2023-04-06T14:58:00;7.22;;;4.10;;
2868;SDS011;1442;47.448;8.582;2023-04-06T15:00:27;6.20;;;4.05;;
2868;SDS011;1442;47.448;8.582;2023-04-06T15:02:55;5.55;;;3.70;;
2868;SDS011;1442;47.448;8.582;2023-04-06T15:05:22;9.95;;;4.22;;
2868;SDS011;1442;47.448;8.582;2023-04-06T15:07:50;8.55;;;4.47;;
2868;SDS011;1442;47.448;8.582;2023-04-06T15:10:17;7.43;;;4.03;;